PUA2603 SAEZ-SUMU
Flight info
| Callsign | PUA2603 |
|---|---|
| Flight time | 0h 44m |
| Altitude | 17000 |
| Route | DORVO1E DORVO A305 TOKAM |
| Aircraft | A339/H-SADE1E2E3GHIJ3J5M1P2RWXY/LB2D1 |
Departure
| Time | 2026-04-28 05:25 |
|---|---|
| Airport | Ezeiza International Airport - Ministro Pistarini (SAEZ) |
Arrival
| Time | 2026-04-28 06:10 |
|---|---|
| Airport | Carrasco General Cesáreo L. Berisso International Airport (SUMU) |
| Time | Latitude | Longitude | Altitude | Speed | Heading |
|---|---|---|---|---|---|
| 2026-04-28 05:10 | -34.81500 | -58.53854 | 97 ft | 0 kts | 349° |
| 2026-04-28 05:15 | -34.81506 | -58.53852 | 97 ft | 2 kts | 349° |
| 2026-04-28 05:15 | -34.81520 | -58.53849 | 97 ft | 1 kts | 349° |
| 2026-04-28 05:16 | -34.81534 | -58.53846 | 97 ft | 2 kts | 349° |
| 2026-04-28 05:16 | -34.81549 | -58.53842 | 96 ft | 2 kts | 349° |
| 2026-04-28 05:16 | -34.81564 | -58.53838 | 96 ft | 2 kts | 349° |
| 2026-04-28 05:17 | -34.81594 | -58.53831 | 96 ft | 2 kts | 354° |
| 2026-04-28 05:17 | -34.81609 | -58.53830 | 95 ft | 2 kts | 1° |
| 2026-04-28 05:17 | -34.81624 | -58.53831 | 95 ft | 2 kts | 7° |
| 2026-04-28 05:17 | -34.81639 | -58.53834 | 95 ft | 2 kts | 14° |
| 2026-04-28 05:18 | -34.81653 | -58.53840 | 94 ft | 2 kts | 20° |
| 2026-04-28 05:18 | -34.81667 | -58.53846 | 94 ft | 2 kts | 26° |
| 2026-04-28 05:18 | -34.81680 | -58.53855 | 94 ft | 2 kts | 33° |
| 2026-04-28 05:18 | -34.81692 | -58.53865 | 93 ft | 2 kts | 39° |
| 2026-04-28 05:19 | -34.81702 | -58.53875 | 93 ft | 0 kts | 44° |
| 2026-04-28 05:19 | -34.81698 | -58.53871 | 93 ft | 1 kts | 44° |
| 2026-04-28 05:20 | -34.81693 | -58.53845 | 93 ft | 8 kts | 86° |
| 2026-04-28 05:20 | -34.81734 | -58.53734 | 91 ft | 19 kts | 141° |
| 2026-04-28 05:20 | -34.81861 | -58.53651 | 87 ft | 17 kts | 145° |
| 2026-04-28 05:20 | -34.81880 | -58.53614 | 85 ft | 0 kts | 87° |
| 2026-04-28 05:21 | -34.81883 | -58.53596 | 85 ft | 4 kts | 118° |
| 2026-04-28 05:21 | -34.81920 | -58.53511 | 83 ft | 15 kts | 115° |
| 2026-04-28 05:21 | -34.81953 | -58.53380 | 82 ft | 17 kts | 104° |
| 2026-04-28 05:21 | -34.81982 | -58.53237 | 81 ft | 17 kts | 104° |
| 2026-04-28 05:22 | -34.82013 | -58.53087 | 79 ft | 19 kts | 104° |
| 2026-04-28 05:22 | -34.82045 | -58.52922 | 77 ft | 20 kts | 103° |
| 2026-04-28 05:22 | -34.82077 | -58.52757 | 77 ft | 20 kts | 103° |
| 2026-04-28 05:22 | -34.82110 | -58.52588 | 76 ft | 20 kts | 103° |
| 2026-04-28 05:23 | -34.82142 | -58.52419 | 77 ft | 20 kts | 104° |
| 2026-04-28 05:23 | -34.82175 | -58.52255 | 77 ft | 19 kts | 104° |
| 2026-04-28 05:23 | -34.82208 | -58.52093 | 77 ft | 19 kts | 104° |
| 2026-04-28 05:23 | -34.82240 | -58.51930 | 76 ft | 20 kts | 104° |
| 2026-04-28 05:24 | -34.82291 | -58.51783 | 73 ft | 15 kts | 152° |
| 2026-04-28 05:24 | -34.82371 | -58.51796 | 73 ft | 8 kts | 186° |
| 2026-04-28 05:24 | -34.82441 | -58.51809 | 73 ft | 13 kts | 191° |
| 2026-04-28 05:24 | -34.82518 | -58.51885 | 75 ft | 17 kts | 263° |
| 2026-04-28 05:25 | -34.82473 | -58.52173 | 77 ft | 66 kts | 282° |
| 2026-04-28 05:25 | -34.82327 | -58.52989 | 81 ft | 129 kts | 282° |
| 2026-04-28 05:25 | -34.82098 | -58.54267 | 138 ft | 174 kts | 283° |
| 2026-04-28 05:25 | -34.81817 | -58.55707 | 795 ft | 174 kts | 284° |
| 2026-04-28 05:26 | -34.81545 | -58.57073 | 1599 ft | 169 kts | 284° |
| 2026-04-28 05:26 | -34.81294 | -58.58438 | 2339 ft | 170 kts | 282° |
| 2026-04-28 05:26 | -34.81074 | -58.59919 | 2794 ft | 187 kts | 271° |
| 2026-04-28 05:26 | -34.81439 | -58.61477 | 3236 ft | 209 kts | 236° |
| 2026-04-28 05:27 | -34.82442 | -58.62871 | 3747 ft | 227 kts | 230° |
| 2026-04-28 05:27 | -34.83540 | -58.64331 | 4265 ft | 245 kts | 230° |
| 2026-04-28 05:27 | -34.84700 | -58.65900 | 4999 ft | 254 kts | 230° |
| 2026-04-28 05:27 | -34.85856 | -58.67476 | 5905 ft | 254 kts | 230° |
| 2026-04-28 05:28 | -34.87026 | -58.69083 | 6798 ft | 255 kts | 230° |
| 2026-04-28 05:28 | -34.88433 | -58.70418 | 7600 ft | 263 kts | 206° |
| 2026-04-28 05:28 | -34.90221 | -58.70834 | 8349 ft | 275 kts | 181° |
| 2026-04-28 05:28 | -34.92096 | -58.70179 | 9088 ft | 289 kts | 153° |
| 2026-04-28 05:29 | -34.93623 | -58.68595 | 9822 ft | 298 kts | 139° |
| 2026-04-28 05:29 | -34.95067 | -58.66730 | 10503 ft | 306 kts | 135° |
| 2026-04-28 05:29 | -34.96390 | -58.64642 | 10891 ft | 325 kts | 127° |
| 2026-04-28 05:29 | -34.97558 | -58.62169 | 11263 ft | 346 kts | 118° |
| 2026-04-28 05:30 | -34.98451 | -58.59407 | 11600 ft | 366 kts | 109° |
| 2026-04-28 05:30 | -34.99022 | -58.56307 | 11927 ft | 386 kts | 99° |
| 2026-04-28 05:30 | -34.99188 | -58.52984 | 12245 ft | 404 kts | 91° |
| 2026-04-28 05:30 | -34.99101 | -58.49524 | 12797 ft | 413 kts | 89° |
| 2026-04-28 05:31 | -34.98992 | -58.46017 | 13537 ft | 417 kts | 89° |
| 2026-04-28 05:31 | -34.98889 | -58.42502 | 14243 ft | 420 kts | 89° |
| 2026-04-28 05:31 | -34.98795 | -58.38945 | 14911 ft | 426 kts | 89° |
| 2026-04-28 05:31 | -34.98706 | -58.35326 | 15540 ft | 432 kts | 89° |
| 2026-04-28 05:32 | -34.98621 | -58.31673 | 16149 ft | 437 kts | 89° |
| 2026-04-28 05:32 | -34.98534 | -58.27999 | 16707 ft | 442 kts | 89° |
| 2026-04-28 05:32 | -34.98446 | -58.24252 | 17007 ft | 445 kts | 89° |
| 2026-04-28 05:32 | -34.98356 | -58.20469 | 17052 ft | 445 kts | 89° |
| 2026-04-28 05:33 | -34.98266 | -58.16716 | 17050 ft | 445 kts | 89° |
| 2026-04-28 05:33 | -34.98174 | -58.12980 | 17053 ft | 445 kts | 89° |
| 2026-04-28 05:33 | -34.98081 | -58.09218 | 17054 ft | 445 kts | 89° |
| 2026-04-28 05:33 | -34.97987 | -58.05482 | 17057 ft | 444 kts | 89° |
| 2026-04-28 05:34 | -34.97890 | -58.01725 | 17058 ft | 444 kts | 89° |
| 2026-04-28 05:34 | -34.97795 | -57.97979 | 17057 ft | 445 kts | 89° |
| 2026-04-28 05:34 | -34.97694 | -57.94215 | 17062 ft | 445 kts | 88° |
| 2026-04-28 05:34 | -34.97187 | -57.90482 | 17050 ft | 445 kts | 71° |
| 2026-04-28 05:35 | -34.95879 | -57.87135 | 17056 ft | 438 kts | 54° |
| 2026-04-28 05:35 | -34.94035 | -57.84282 | 17067 ft | 429 kts | 47° |
| 2026-04-28 05:35 | -34.92104 | -57.81548 | 17061 ft | 429 kts | 46° |
| 2026-04-28 05:35 | -34.90175 | -57.78825 | 17059 ft | 428 kts | 47° |
| 2026-04-28 05:36 | -34.88238 | -57.76052 | 17062 ft | 428 kts | 47° |
| 2026-04-28 05:36 | -34.86344 | -57.73309 | 17050 ft | 429 kts | 47° |
| 2026-04-28 05:36 | -34.84450 | -57.70544 | 17045 ft | 428 kts | 47° |
| 2026-04-28 05:36 | -34.82557 | -57.67773 | 17047 ft | 429 kts | 48° |
| 2026-04-28 05:37 | -34.80668 | -57.65002 | 17061 ft | 428 kts | 47° |
| 2026-04-28 05:37 | -34.78764 | -57.62213 | 17000 ft | 429 kts | 48° |
| 2026-04-28 05:37 | -34.76882 | -57.59460 | 16673 ft | 427 kts | 48° |
| 2026-04-28 05:37 | -34.75019 | -57.56735 | 16410 ft | 424 kts | 48° |
| 2026-04-28 05:38 | -34.73194 | -57.53982 | 16046 ft | 423 kts | 53° |
| 2026-04-28 05:38 | -34.71978 | -57.50728 | 15650 ft | 424 kts | 76° |
| 2026-04-28 05:38 | -34.71766 | -57.47245 | 15269 ft | 420 kts | 96° |
| 2026-04-28 05:38 | -34.72099 | -57.43772 | 14879 ft | 416 kts | 99° |
| 2026-04-28 05:39 | -34.72462 | -57.40298 | 14462 ft | 413 kts | 99° |
| 2026-04-28 05:39 | -34.72802 | -57.36872 | 14078 ft | 410 kts | 98° |
| 2026-04-28 05:39 | -34.73117 | -57.33491 | 13713 ft | 406 kts | 97° |
| 2026-04-28 05:39 | -34.73415 | -57.30119 | 13332 ft | 402 kts | 97° |
| 2026-04-28 05:40 | -34.73700 | -57.26774 | 12960 ft | 398 kts | 97° |
| 2026-04-28 05:40 | -34.73977 | -57.23468 | 12607 ft | 395 kts | 97° |
| 2026-04-28 05:40 | -34.74249 | -57.20174 | 12197 ft | 392 kts | 97° |
| 2026-04-28 05:40 | -34.74519 | -57.16895 | 11801 ft | 389 kts | 97° |
| 2026-04-28 05:41 | -34.74781 | -57.13686 | 11440 ft | 385 kts | 97° |
| 2026-04-28 05:41 | -34.75041 | -57.10495 | 11062 ft | 382 kts | 97° |
| 2026-04-28 05:41 | -34.75303 | -57.07277 | 10648 ft | 378 kts | 96° |
| 2026-04-28 05:41 | -34.75552 | -57.04195 | 10334 ft | 363 kts | 97° |
| 2026-04-28 05:42 | -34.75789 | -57.01231 | 10254 ft | 342 kts | 97° |
| 2026-04-28 05:42 | -34.76012 | -56.98449 | 10217 ft | 323 kts | 97° |
| 2026-04-28 05:42 | -34.76220 | -56.95846 | 10205 ft | 306 kts | 96° |
| 2026-04-28 05:42 | -34.76425 | -56.93292 | 10154 ft | 299 kts | 97° |
| 2026-04-28 05:43 | -34.76623 | -56.90825 | 10121 ft | 294 kts | 96° |
| 2026-04-28 05:43 | -34.76819 | -56.88375 | 10102 ft | 292 kts | 96° |
| 2026-04-28 05:43 | -34.77013 | -56.85921 | 9933 ft | 293 kts | 96° |
| 2026-04-28 05:43 | -34.77207 | -56.83473 | 9649 ft | 294 kts | 96° |
| 2026-04-28 05:44 | -34.77402 | -56.80997 | 9370 ft | 293 kts | 96° |
| 2026-04-28 05:44 | -34.77594 | -56.78556 | 9114 ft | 292 kts | 96° |
| 2026-04-28 05:44 | -34.77785 | -56.76108 | 8824 ft | 292 kts | 96° |
| 2026-04-28 05:44 | -34.77977 | -56.73672 | 8541 ft | 293 kts | 97° |
| 2026-04-28 05:45 | -34.78419 | -56.71272 | 8247 ft | 290 kts | 113° |
| 2026-04-28 05:45 | -34.79334 | -56.69107 | 7989 ft | 287 kts | 124° |
| 2026-04-28 05:45 | -34.80402 | -56.67093 | 7720 ft | 285 kts | 126° |
| 2026-04-28 05:45 | -34.81502 | -56.65082 | 7480 ft | 284 kts | 126° |
| 2026-04-28 05:46 | -34.82589 | -56.63083 | 7227 ft | 283 kts | 126° |
| 2026-04-28 05:46 | -34.83662 | -56.61082 | 6981 ft | 282 kts | 126° |
| 2026-04-28 05:46 | -34.84721 | -56.59091 | 6720 ft | 281 kts | 125° |
| 2026-04-28 05:46 | -34.85766 | -56.57116 | 6481 ft | 280 kts | 125° |
| 2026-04-28 05:47 | -34.86810 | -56.55134 | 6231 ft | 279 kts | 125° |
| 2026-04-28 05:47 | -34.87850 | -56.53155 | 5979 ft | 278 kts | 125° |
| 2026-04-28 05:47 | -34.88887 | -56.51183 | 5726 ft | 277 kts | 125° |
| 2026-04-28 05:47 | -34.89908 | -56.49240 | 5477 ft | 276 kts | 124° |
| 2026-04-28 05:48 | -34.90928 | -56.47295 | 5235 ft | 275 kts | 124° |
| 2026-04-28 05:48 | -34.91959 | -56.45327 | 4984 ft | 274 kts | 124° |
| 2026-04-28 05:48 | -34.92974 | -56.43389 | 4743 ft | 273 kts | 124° |
| 2026-04-28 05:48 | -34.93992 | -56.41444 | 4501 ft | 273 kts | 124° |
| 2026-04-28 05:49 | -34.95010 | -56.39496 | 4261 ft | 272 kts | 124° |
| 2026-04-28 05:49 | -34.96016 | -56.37571 | 4020 ft | 272 kts | 124° |
| 2026-04-28 05:49 | -34.97028 | -56.35634 | 3775 ft | 271 kts | 124° |
| 2026-04-28 05:49 | -34.98032 | -56.33711 | 3534 ft | 271 kts | 123° |
| 2026-04-28 05:50 | -34.99021 | -56.31772 | 3278 ft | 271 kts | 117° |
| 2026-04-28 05:50 | -34.99451 | -56.29584 | 3021 ft | 270 kts | 87° |
| 2026-04-28 05:50 | -34.98980 | -56.27445 | 2960 ft | 259 kts | 57° |
| 2026-04-28 05:50 | -34.97922 | -56.25742 | 2970 ft | 246 kts | 47° |
| 2026-04-28 05:51 | -34.96832 | -56.24218 | 2966 ft | 236 kts | 47° |
| 2026-04-28 05:51 | -34.95820 | -56.22720 | 2954 ft | 226 kts | 49° |
| 2026-04-28 05:51 | -34.94875 | -56.21233 | 2957 ft | 215 kts | 50° |
| 2026-04-28 05:51 | -34.94014 | -56.19830 | 2978 ft | 202 kts | 51° |
| 2026-04-28 05:52 | -34.93218 | -56.18518 | 2919 ft | 189 kts | 50° |
| 2026-04-28 05:52 | -34.92446 | -56.17246 | 2690 ft | 183 kts | 50° |
| 2026-04-28 05:52 | -34.91707 | -56.16031 | 2443 ft | 179 kts | 50° |
| 2026-04-28 05:52 | -34.90980 | -56.14838 | 2215 ft | 174 kts | 50° |
| 2026-04-28 05:53 | -34.90277 | -56.13682 | 1978 ft | 168 kts | 50° |
| 2026-04-28 05:53 | -34.89598 | -56.12566 | 1770 ft | 162 kts | 50° |
| 2026-04-28 05:53 | -34.88947 | -56.11495 | 1567 ft | 156 kts | 50° |
| 2026-04-28 05:53 | -34.88315 | -56.10457 | 1363 ft | 150 kts | 50° |
| 2026-04-28 05:54 | -34.87709 | -56.09461 | 1175 ft | 146 kts | 50° |
| 2026-04-28 05:54 | -34.87104 | -56.08469 | 987 ft | 146 kts | 51° |
| 2026-04-28 05:54 | -34.86512 | -56.07495 | 797 ft | 144 kts | 51° |
| 2026-04-28 05:54 | -34.85917 | -56.06516 | 606 ft | 143 kts | 51° |
| 2026-04-28 05:55 | -34.85333 | -56.05555 | 418 ft | 141 kts | 51° |
| 2026-04-28 05:55 | -34.84748 | -56.04593 | 223 ft | 140 kts | 51° |
| 2026-04-28 05:55 | -34.84176 | -56.03650 | 93 ft | 135 kts | 51° |
| 2026-04-28 05:55 | -34.83649 | -56.02778 | 125 ft | 129 kts | 52° |
| 2026-04-28 05:56 | -34.83080 | -56.01843 | 629 ft | 144 kts | 51° |
| 2026-04-28 05:56 | -34.82490 | -56.00875 | 1359 ft | 146 kts | 50° |
| 2026-04-28 05:56 | -34.81903 | -55.99863 | 2000 ft | 150 kts | 62° |
| 2026-04-28 05:56 | -34.81773 | -55.98584 | 2360 ft | 165 kts | 97° |
| 2026-04-28 05:57 | -34.81992 | -55.97151 | 2738 ft | 182 kts | 103° |
| 2026-04-28 05:57 | -34.82297 | -55.95544 | 2981 ft | 211 kts | 103° |
| 2026-04-28 05:57 | -34.82625 | -55.93731 | 2976 ft | 229 kts | 102° |
| 2026-04-28 05:57 | -34.82947 | -55.91812 | 2969 ft | 232 kts | 102° |
| 2026-04-28 05:58 | -34.83251 | -55.89907 | 2972 ft | 232 kts | 101° |
| 2026-04-28 05:58 | -34.83696 | -55.88019 | 2963 ft | 231 kts | 121° |
| 2026-04-28 05:58 | -34.84749 | -55.86586 | 2965 ft | 227 kts | 150° |
| 2026-04-28 05:58 | -34.86208 | -55.85912 | 2965 ft | 223 kts | 176° |
| 2026-04-28 05:59 | -34.87752 | -55.85806 | 2966 ft | 222 kts | 182° |
| 2026-04-28 05:59 | -34.89296 | -55.85773 | 2962 ft | 222 kts | 182° |
| 2026-04-28 05:59 | -34.90848 | -55.85742 | 2965 ft | 221 kts | 186° |
| 2026-04-28 05:59 | -34.92285 | -55.86238 | 2953 ft | 214 kts | 217° |
| 2026-04-28 06:00 | -34.93303 | -55.87516 | 2964 ft | 209 kts | 240° |
| 2026-04-28 06:00 | -34.94052 | -55.89040 | 2966 ft | 209 kts | 242° |
| 2026-04-28 06:00 | -34.94781 | -55.90564 | 2964 ft | 209 kts | 242° |
| 2026-04-28 06:00 | -34.95480 | -55.92119 | 2968 ft | 209 kts | 245° |
| 2026-04-28 06:01 | -34.96125 | -55.93697 | 2978 ft | 209 kts | 245° |
| 2026-04-28 06:01 | -34.96771 | -55.95288 | 2974 ft | 209 kts | 245° |
| 2026-04-28 06:01 | -34.97408 | -55.96852 | 2966 ft | 210 kts | 245° |
| 2026-04-28 06:01 | -34.98056 | -55.98432 | 2963 ft | 210 kts | 245° |
| 2026-04-28 06:02 | -34.98704 | -56.00008 | 2959 ft | 211 kts | 245° |
| 2026-04-28 06:02 | -34.99364 | -56.01606 | 2972 ft | 211 kts | 245° |
| 2026-04-28 06:02 | -35.00012 | -56.03178 | 2972 ft | 210 kts | 245° |
| 2026-04-28 06:02 | -35.00661 | -56.04750 | 2967 ft | 209 kts | 245° |
| 2026-04-28 06:03 | -35.01315 | -56.06336 | 2960 ft | 209 kts | 245° |
| 2026-04-28 06:03 | -35.01963 | -56.07908 | 2966 ft | 208 kts | 245° |
| 2026-04-28 06:03 | -35.02600 | -56.09477 | 2977 ft | 208 kts | 250° |
| 2026-04-28 06:03 | -35.02852 | -56.11167 | 2981 ft | 206 kts | 275° |
| 2026-04-28 06:04 | -35.02484 | -56.12817 | 2974 ft | 199 kts | 297° |
| 2026-04-28 06:04 | -35.01646 | -56.14080 | 2965 ft | 191 kts | 319° |
| 2026-04-28 06:04 | -35.00588 | -56.14966 | 2962 ft | 181 kts | 324° |
| 2026-04-28 06:04 | -34.99551 | -56.15761 | 2961 ft | 174 kts | 324° |
| 2026-04-28 06:05 | -34.98528 | -56.16546 | 2975 ft | 175 kts | 324° |
| 2026-04-28 06:05 | -34.97500 | -56.17344 | 2981 ft | 175 kts | 324° |
| 2026-04-28 06:05 | -34.96482 | -56.18140 | 2984 ft | 170 kts | 324° |
| 2026-04-28 06:05 | -34.95537 | -56.18880 | 2984 ft | 159 kts | 323° |
| 2026-04-28 06:06 | -34.94476 | -56.19299 | 2975 ft | 168 kts | 1° |
| 2026-04-28 06:06 | -34.93409 | -56.18717 | 2980 ft | 177 kts | 37° |
| 2026-04-28 06:06 | -34.92578 | -56.17617 | 2795 ft | 181 kts | 50° |
| 2026-04-28 06:06 | -34.91855 | -56.16370 | 2519 ft | 183 kts | 53° |
| 2026-04-28 06:07 | -34.91150 | -56.15116 | 2256 ft | 177 kts | 52° |
| 2026-04-28 06:07 | -34.90456 | -56.13936 | 2020 ft | 170 kts | 51° |
| 2026-04-28 06:07 | -34.89778 | -56.12820 | 1823 ft | 163 kts | 50° |
| 2026-04-28 06:07 | -34.89127 | -56.11763 | 1622 ft | 157 kts | 50° |
| 2026-04-28 06:08 | -34.88495 | -56.10733 | 1428 ft | 151 kts | 51° |
| 2026-04-28 06:08 | -34.87884 | -56.09734 | 1239 ft | 145 kts | 51° |
| 2026-04-28 06:08 | -34.87289 | -56.08761 | 1056 ft | 145 kts | 51° |
| 2026-04-28 06:08 | -34.86689 | -56.07775 | 855 ft | 144 kts | 51° |
| 2026-04-28 06:09 | -34.86096 | -56.06802 | 667 ft | 143 kts | 51° |
| 2026-04-28 06:09 | -34.85511 | -56.05840 | 473 ft | 141 kts | 51° |
| 2026-04-28 06:09 | -34.84927 | -56.04882 | 286 ft | 140 kts | 51° |
| 2026-04-28 06:09 | -34.84349 | -56.03933 | 117 ft | 137 kts | 52° |
| 2026-04-28 06:10 | -34.83793 | -56.03019 | 75 ft | 129 kts | 52° |
| 2026-04-28 06:10 | -34.83434 | -56.02427 | 86 ft | 43 kts | 53° |
| 2026-04-28 06:10 | -34.83323 | -56.02243 | 86 ft | 25 kts | 54° |
| 2026-04-28 06:10 | -34.83221 | -56.02075 | 88 ft | 22 kts | 58° |
| 2026-04-28 06:11 | -34.83229 | -56.01971 | 90 ft | 11 kts | 126° |
| 2026-04-28 06:11 | -34.83284 | -56.01907 | 91 ft | 11 kts | 140° |
| 2026-04-28 06:11 | -34.83346 | -56.01849 | 92 ft | 11 kts | 144° |
| 2026-04-28 06:11 | -34.83419 | -56.01787 | 91 ft | 14 kts | 145° |
| 2026-04-28 06:12 | -34.83482 | -56.01710 | 90 ft | 9 kts | 139° |
| 2026-04-28 06:12 | -34.83532 | -56.01669 | 88 ft | 7 kts | 140° |
| 2026-04-28 06:12 | -34.83544 | -56.01658 | 88 ft | 0 kts | 142° |
| 2026-04-28 06:12 | -34.83540 | -56.01661 | 88 ft | 0 kts | 142° |
| 2026-04-28 06:13 | -34.83543 | -56.01659 | 88 ft | 0 kts | 142° |